Time;durP1;ratioP1;P1;durP2;ratioP2;P2;SDS_P1;SDS_P2;PMS_P1;PMS_P2;Temp;Humidity;BMP_temperature;BMP_pressure;BME280_temperature;BME280_humidity;BME280_pressure;Samples;Min_cycle;Max_cycle;Signal;HPM_P1;HPM_P2
2022/11/11 00:01:47;;;;;;;8.80;3.52;;;;;;;10.54;100.00;101860.66;5119214;56;1143061;-76
2022/11/11 00:07:10;;;;;;;12.28;4.15;;;;;;;10.56;100.00;101844.23;5118893;56;1141146;-76
2022/11/11 00:12:33;;;;;;;9.18;3.67;;;;;;;10.58;100.00;101858.70;5119243;56;1142928;-76
2022/11/11 00:29:19;;;;;;;14.73;4.10;;;;;;;10.56;100.00;101876.44;5102573;56;1141083;-77
2022/11/11 00:35:51;;;;;;;13.17;3.80;;;;;;;10.61;100.00;101869.58;5127112;56;1142873;-77
2022/11/11 00:40:10;;;;;;;12.03;4.00;;;;;;;10.62;100.00;101868.64;5051028;56;1142812;-77
2022/11/11 00:45:33;;;;;;;11.53;4.20;;;;;;;10.63;100.00;101873.00;5038481;57;1142814;-77
2022/11/11 00:51:00;;;;;;;11.57;3.47;;;;;;;10.67;100.00;101879.37;5039018;57;1143035;-76
2022/11/11 00:56:25;;;;;;;6.87;3.03;;;;;;;10.66;100.00;101863.10;5039677;57;1143320;-76
2022/11/11 01:01:50;;;;;;;10.03;3.37;;;;;;;10.68;100.00;101858.58;5058630;57;1140922;-77
2022/11/11 01:07:15;;;;;;;11.57;3.72;;;;;;;10.69;100.00;101854.14;5029430;56;1143133;-77
2022/11/11 01:12:38;;;;;;;;;;;;;;;10.69;100.00;101851.50;5043069;56;1143372;-76
2022/11/11 01:18:01;;;;;;;12.95;3.72;;;;;;;10.68;100.00;101853.76;5073004;55;978229;-76
2022/11/11 01:23:25;;;;;;;13.70;3.57;;;;;;;10.68;100.00;101865.20;5128518;55;1141140;-76
2022/11/11 01:28:54;;;;;;;15.15;3.72;;;;;;;10.69;100.00;101869.55;5128797;55;1142964;-76
2022/11/11 01:34:17;;;;;;;8.13;3.83;;;;;;;10.69;100.00;101871.34;5069126;56;1143109;-76
2022/11/11 01:39:40;;;;;;;8.60;3.42;;;;;;;10.71;100.00;101886.17;5138727;56;1140877;-76
2022/11/11 01:45:06;;;;;;;10.20;3.53;;;;;;;10.72;100.00;101893.16;5142240;56;1141033;-76
2022/11/11 01:50:30;;;;;;;8.37;2.80;;;;;;;10.71;100.00;101874.73;5151926;55;1143318;-76
2022/11/11 01:55:54;;;;;;;13.93;3.90;;;;;;;10.70;100.00;101854.03;5163960;55;1150512;-77
2022/11/11 02:01:19;;;;;;;13.83;4.00;;;;;;;10.73;100.00;101841.09;5093304;56;1143058;-77
2022/11/11 02:06:43;;;;;;;7.97;3.50;;;;;;;10.72;100.00;101828.34;5141119;55;1142916;-77
2022/11/11 02:17:52;;;;;;;16.20;3.14;;;;;;;10.70;100.00;101829.36;5128402;56;1140937;-77
2022/11/11 02:23:44;;;;;;;9.63;4.17;;;;;;;10.69;100.00;101815.78;5108096;55;1143172;-77
2022/11/11 02:29:14;;;;;;;11.55;3.15;;;;;;;10.70;100.00;101820.09;5102537;55;1140973;-76
2022/11/11 02:34:37;;;;;;;8.00;3.43;;;;;;;10.69;100.00;101832.98;5102852;55;1143250;-76
2022/11/11 02:40:06;;;;;;;14.50;4.17;;;;;;;10.68;100.00;101846.67;5118812;55;1140779;-77
2022/11/11 02:45:30;;;;;;;9.30;3.50;;;;;;;10.70;100.00;101855.82;5087617;55;1143125;-76
2022/11/11 02:50:54;;;;;;;10.87;3.73;;;;;;;10.69;100.00;101864.27;5163783;55;1144641;-76
2022/11/11 02:57:05;;;;;;;;;;;;;;;10.69;100.00;101872.20;5150329;55;1142895;-76
2022/11/11 03:01:41;;;;;;;11.22;3.52;;;;;;;10.69;100.00;101870.87;5161784;55;978211;-76
2022/11/11 03:07:06;;;;;;;12.90;2.87;;;;;;;10.71;100.00;101865.00;5154088;55;1141369;-76
2022/11/11 03:12:29;;;;;;;11.43;3.77;;;;;;;10.72;100.00;101857.45;5144674;55;1142920;-77
2022/11/11 03:17:53;;;;;;;10.23;2.80;;;;;;;10.75;100.00;101862.57;5143270;56;1143115;-78
2022/11/11 03:23:17;;;;;;;11.65;3.85;;;;;;;10.75;100.00;101871.83;5145771;55;1143198;-76
2022/11/11 03:28:40;;;;;;;13.73;3.60;;;;;;;10.77;100.00;101887.16;5148795;55;1142929;-77
2022/11/11 03:34:20;;;;;;;21.83;3.60;;;;;;;10.79;100.00;101888.40;5164072;55;1143069;-77
2022/11/11 03:39:40;;;;;;;13.07;3.23;;;;;;;10.80;100.00;101893.61;5126857;55;1143033;-76
2022/11/11 03:45:04;;;;;;;16.95;3.85;;;;;;;10.83;100.00;101907.14;5102642;56;1143138;-76
2022/11/11 03:50:27;;;;;;;13.70;2.65;;;;;;;10.79;100.00;101914.86;5128223;56;1142862;-76
2022/11/11 03:55:52;;;;;;;12.60;2.80;;;;;;;10.72;100.00;101909.52;5128061;56;1142901;-76
2022/11/11 04:10:21;;;;;;;15.93;3.00;;;;;;;10.67;100.00;101910.27;5127460;55;1143076;-76
2022/11/11 04:12:24;;;;;;;12.97;2.67;;;;;;;10.55;100.00;101884.84;5122494;55;1143075;-76
2022/11/11 04:17:48;;;;;;;18.87;3.93;;;;;;;10.49;100.00;101860.55;5124244;55;1143024;-75
2022/11/11 04:23:12;;;;;;;13.90;3.15;;;;;;;10.43;100.00;101858.23;5162884;55;1143148;-76
2022/11/11 04:34:15;;;;;;;8.63;2.50;;;;;;;10.33;100.00;101865.83;5186585;55;978402;-76
2022/11/11 04:45:34;;;;;;;7.33;3.00;;;;;;;10.24;100.00;101883.51;5122662;56;1140858;-75
2022/11/11 04:51:01;;;;;;;7.50;2.50;;;;;;;10.17;100.00;101898.84;5119270;56;1140835;-76
2022/11/11 05:30:34;;;;;;;11.17;3.63;;;;;;;9.71;100.00;101893.81;5142355;55;1138791;-74
2022/11/11 05:35:57;;;;;;;;;;;;;;;9.64;100.00;101889.77;5112034;55;1140847;-76
2022/11/11 05:41:21;;;;;;;7.23;2.57;;;;;;;9.56;100.00;101883.18;4994173;57;976083;-75
2022/11/11 05:46:44;;;;;;;14.33;3.47;;;;;;;9.48;100.00;101892.34;4953181;56;1136617;-75
2022/11/11 05:52:10;;;;;;;18.85;3.80;;;;;;;9.40;100.00;101888.39;4952858;57;1140728;-75
2022/11/11 05:57:34;;;;;;;10.40;2.83;;;;;;;9.33;100.00;101893.58;4953162;57;1140846;-75
2022/11/11 06:03:04;;;;;;;11.63;2.62;;;;;;;9.28;100.00;101896.94;4953313;57;1141167;-75
2022/11/11 06:08:27;;;;;;;11.47;3.97;;;;;;;9.21;100.00;101900.34;4951921;57;1140907;-75
2022/11/11 06:13:51;;;;;;;16.07;3.45;;;;;;;9.14;100.00;101895.84;5011340;56;1141136;-75
2022/11/11 06:19:14;;;;;;;11.87;3.37;;;;;;;9.08;100.00;101892.18;5003361;56;1140927;-75
2022/11/11 06:24:38;;;;;;;5.97;2.87;;;;;;;8.99;100.00;101882.55;4970850;57;1141001;-75
2022/11/11 06:30:01;;;;;;;11.30;3.80;;;;;;;8.94;100.00;101888.05;4953407;57;1138841;-76
2022/11/11 06:35:24;;;;;;;13.95;4.37;;;;;;;8.85;100.00;101884.55;5061889;55;1141403;-75
2022/11/11 06:40:48;;;;;;;10.40;3.12;;;;;;;8.82;100.00;101888.66;5043508;57;1141004;-76
2022/11/11 06:46:26;;;;;;;15.10;5.42;;;;;;;8.75;100.00;101895.99;5038962;57;1141031;-76
2022/11/11 06:51:50;;;;;;;6.00;3.85;;;;;;;8.71;100.00;101901.02;5100950;56;1140825;-76
2022/11/11 06:57:12;;;;;;;;;;;;;;;8.67;100.00;101888.92;5129780;55;1138843;-75
2022/11/11 07:02:36;;;;;;;18.82;4.67;;;;;;;8.65;100.00;101897.38;5143590;56;976089;-74
2022/11/11 07:08:10;;;;;;;4.83;2.23;;;;;;;8.59;100.00;101887.09;5117778;55;1138790;-76
2022/11/11 07:13:33;;;;;;;11.10;3.87;;;;;;;8.57;100.00;101894.69;5098216;56;1138774;-76
2022/11/11 07:18:57;;;;;;;10.45;3.90;;;;;;;8.58;100.00;101905.16;5159308;55;1140928;-77
2022/11/11 07:24:21;;;;;;;15.18;3.02;;;;;;;8.61;100.00;101906.81;5109037;56;1141044;-76
2022/11/11 07:29:44;;;;;;;12.68;2.92;;;;;;;8.61;100.00;101902.86;5119383;56;1140923;-76
2022/11/11 07:35:08;;;;;;;13.78;3.85;;;;;;;8.66;100.00;101918.86;5122397;55;1140877;-76
2022/11/11 07:40:32;;;;;;;8.90;2.83;;;;;;;8.71;100.00;101914.66;5143809;55;1140953;-75
2022/11/11 07:45:56;;;;;;;7.50;2.97;;;;;;;8.79;100.00;101913.39;5147276;55;1138655;-76
2022/11/11 07:51:20;;;;;;;6.40;2.77;;;;;;;8.85;100.00;101915.36;5120318;55;1138899;-76
2022/11/11 07:56:43;;;;;;;15.50;4.55;;;;;;;8.90;100.00;101915.97;5111379;55;1138753;-76
2022/11/11 08:02:09;;;;;;;4.60;3.00;;;;;;;8.94;100.00;101925.45;5174075;55;1140809;-76
2022/11/11 08:07:34;;;;;;;11.40;3.40;;;;;;;9.02;100.00;101929.88;5115592;55;1138677;-77
2022/11/11 08:18:40;;;;;;;11.77;3.47;;;;;;;9.11;100.00;101918.89;5180988;55;1141343;-76
2022/11/11 08:24:05;;;;;;;10.63;3.77;;;;;;;9.13;100.00;101921.00;5163856;55;1140884;-76
2022/11/11 08:29:28;;;;;;;10.10;3.63;;;;;;;9.16;100.00;101930.09;5157419;55;1141127;-76
2022/11/11 08:34:52;;;;;;;11.23;3.50;;;;;;;9.24;100.00;101937.15;5167422;55;1140945;-76
2022/11/11 08:40:16;;;;;;;6.50;2.65;;;;;;;9.32;100.00;101942.89;5115250;55;1140883;-77
2022/11/11 08:45:41;;;;;;;9.68;3.08;;;;;;;9.40;100.00;101950.45;5131609;55;1138847;-76
2022/11/11 08:51:04;;;;;;;7.10;3.42;;;;;;;9.47;100.00;101961.93;5108774;55;1138726;-66
2022/11/11 08:56:26;;;;;;;;;;;;;;;9.58;100.00;101965.84;5116356;55;1138684;-67
2022/11/11 09:01:50;;;;;;;10.40;2.90;;;;;;;9.68;100.00;101966.61;5094353;56;976042;-66
2022/11/11 09:07:14;;;;;;;6.75;2.40;;;;;;;9.75;100.00;101964.06;5091959;56;1138846;-66
2022/11/11 09:12:37;;;;;;;7.90;2.47;;;;;;;9.82;100.00;101987.89;5100257;56;1139108;-67
2022/11/11 09:18:02;;;;;;;7.72;3.02;;;;;;;9.88;100.00;101998.17;5132184;56;1138807;-70
2022/11/11 09:23:25;;;;;;;9.37;3.10;;;;;;;9.95;100.00;102000.48;5056078;57;1139093;-68
2022/11/11 09:28:48;;;;;;;9.30;3.70;;;;;;;10.02;100.00;102001.42;5157755;55;1138884;-66
2022/11/11 09:34:12;;;;;;;7.60;3.37;;;;;;;10.06;100.00;101992.87;5178203;55;1141127;-68
2022/11/11 09:39:35;;;;;;;9.83;3.47;;;;;;;10.07;100.00;102002.05;5188025;55;1141085;-66
2022/11/11 09:45:17;;;;;;;10.48;3.02;;;;;;;10.07;100.00;101996.76;5205515;55;1140965;-68
2022/11/11 09:50:43;;;;;;;15.40;2.83;;;;;;;10.10;100.00;101998.36;5140090;56;1143005;-66
2022/11/11 09:56:13;;;;;;;7.40;2.65;;;;;;;10.09;100.00;101998.83;5141107;55;1143107;-66
2022/11/11 10:01:55;;;;;;;11.30;2.83;;;;;;;10.07;100.00;101994.58;5141175;56;1140748;-66
2022/11/11 10:07:28;;;;;;;10.97;2.77;;;;;;;10.10;100.00;101983.82;4893677;57;1143065;-70
2022/11/11 10:12:56;;;;;;;8.37;2.57;;;;;;;10.17;100.00;101982.58;4879689;57;1143047;-69
2022/11/11 10:18:42;;;;;;;9.25;3.17;;;;;;;10.21;100.00;101978.88;4912823;57;1141030;-71
2022/11/11 10:24:09;;;;;;;6.33;2.87;;;;;;;10.25;100.00;101975.12;4972934;58;1141159;-67
2022/11/11 10:29:43;;;;;;;8.80;2.90;;;;;;;10.33;100.00;101966.80;4972855;58;1141001;-69
2022/11/11 10:35:21;;;;;;;6.43;2.80;;;;;;;10.41;100.00;101967.22;4947771;57;1141037;-66
2022/11/11 10:40:57;;;;;;;9.67;3.07;;;;;;;10.44;100.00;101965.73;4972322;57;1140883;-64
2022/11/11 10:46:39;;;;;;;7.83;2.83;;;;;;;10.52;100.00;101965.73;5215369;55;1141042;-66
2022/11/11 10:52:22;;;;;;;12.87;2.70;;;;;;;10.56;100.00;101973.00;5193296;55;1141175;-69
2022/11/11 10:57:55;;;;;;;10.10;3.40;;;;;;;10.60;100.00;101961.33;5121356;55;1143063;-69
2022/11/11 11:03:31;;;;;;;9.67;3.40;;;;;;;10.62;100.00;101954.16;5150301;55;1143060;-67
2022/11/11 11:09:07;;;;;;;9.37;4.57;;;;;;;10.72;100.00;101960.64;5129496;55;1141129;-69
2022/11/11 11:14:37;;;;;;;7.50;3.30;;;;;;;10.78;100.00;101957.67;5124078;55;1140905;-66
2022/11/11 11:20:11;;;;;;;7.82;2.54;;;;;;;10.78;100.00;101953.70;5196577;55;1141023;-69
2022/11/11 11:25:34;;;;;;;7.87;2.40;;;;;;;10.80;100.00;101948.33;5158024;55;1140901;-66
2022/11/11 11:31:05;;;;;;;7.65;3.25;;;;;;;10.84;100.00;101951.20;5154249;55;1141076;-69
2022/11/11 11:36:28;;;;;;;4.90;2.53;;;;;;;10.91;100.00;101946.78;5153698;55;1141045;-67
2022/11/11 11:41:53;;;;;;;12.15;3.30;;;;;;;10.99;100.00;101957.42;5152337;55;1140955;-67
2022/11/11 11:47:35;;;;;;;7.87;2.87;;;;;;;11.04;100.00;101957.52;5138636;55;1143023;-68
2022/11/11 11:53:22;;;;;;;6.80;3.10;;;;;;;11.09;100.00;101968.72;5138629;55;1141007;-69
2022/11/11 11:58:58;;;;;;;6.58;2.83;;;;;;;11.12;100.00;101960.61;5180016;55;1140864;-65
2022/11/11 12:04:46;;;;;;;8.77;3.10;;;;;;;11.13;100.00;101973.38;5154176;55;1141060;-64
2022/11/11 12:10:55;;;;;;;10.93;3.10;;;;;;;11.14;100.00;101983.89;5165833;55;1141282;-67
2022/11/11 12:16:42;;;;;;;11.45;3.30;;;;;;;11.13;100.00;101972.05;5179759;55;1142994;-66
2022/11/11 12:22:40;;;;;;;9.37;3.27;;;;;;;11.13;100.00;101976.02;5142777;55;1143151;-67
2022/11/11 12:28:29;;;;;;;11.03;3.13;;;;;;;11.13;100.00;101978.20;5148698;55;1150454;-68
2022/11/11 12:34:26;;;;;;;6.50;2.33;;;;;;;11.13;100.00;101969.41;5187330;55;1142941;-67
2022/11/11 12:39:56;;;;;;;5.12;2.85;;;;;;;11.16;100.00;101974.50;5075291;55;1140999;-66
2022/11/11 12:45:30;;;;;;;7.15;2.90;;;;;;;11.19;100.00;101969.04;5163758;55;1140937;-68
2022/11/11 12:51:15;;;;;;;3.70;2.60;;;;;;;11.18;100.00;101976.13;5163639;55;1140871;-66
2022/11/11 12:56:52;;;;;;;10.47;3.00;;;;;;;11.17;100.00;101974.89;5153622;55;1141019;-66
2022/11/11 13:02:35;;;;;;;6.75;3.22;;;;;;;11.22;100.00;101980.32;5135937;55;1142896;-66
2022/11/11 13:08:36;;;;;;;11.93;2.60;;;;;;;11.24;100.00;101989.50;5151226;55;1140812;-70
2022/11/11 13:14:22;;;;;;;8.07;3.37;;;;;;;11.26;100.00;101992.92;5134852;55;1143056;-65
2022/11/11 13:20:02;;;;;;;10.08;4.55;;;;;;;11.28;100.00;101991.90;5148079;55;1141133;-66
2022/11/11 13:25:30;;;;;;;15.17;5.20;;;;;;;11.32;100.00;101993.02;5113202;55;1142967;-65
2022/11/11 13:31:25;;;;;;;11.47;3.90;;;;;;;11.32;100.00;101993.88;5150485;55;1143043;-68
2022/11/11 13:36:53;;;;;;;7.73;3.40;;;;;;;11.31;100.00;101991.31;5155945;55;1143153;-66
2022/11/11 13:42:26;;;;;;;14.23;4.10;;;;;;;11.28;100.00;101989.25;5136714;55;1140840;-69
2022/11/11 13:47:53;;;;;;;10.37;2.63;;;;;;;11.25;100.00;101990.74;5125902;55;1142825;-68
2022/11/11 13:53:32;;;;;;;10.78;3.27;;;;;;;11.23;100.00;101988.65;5109864;55;1142799;-68
2022/11/11 13:58:58;;;;;;;9.83;3.35;;;;;;;11.20;100.00;101984.84;5080416;55;1142972;-68
2022/11/11 14:04:21;;;;;;;9.73;3.10;;;;;;;11.16;100.00;101994.36;5076850;55;1140988;-66
2022/11/11 14:10:01;;;;;;;13.60;3.53;;;;;;;11.18;100.00;101998.64;5078842;55;1140890;-66
2022/11/11 14:15:48;;;;;;;7.57;3.23;;;;;;;11.19;100.00;102000.81;5116240;55;1143035;-66
2022/11/11 14:21:15;;;;;;;6.40;2.80;;;;;;;11.18;100.00;101999.96;5097570;55;1141124;-70
2022/11/11 14:26:39;;;;;;;7.37;3.10;;;;;;;11.14;100.00;101997.13;5101440;56;1141133;-68
2022/11/11 14:32:24;;;;;;;10.45;3.35;;;;;;;11.07;100.00;102000.19;5123753;55;1140945;-68
2022/11/11 14:38:17;;;;;;;11.00;3.37;;;;;;;11.03;100.00;102003.47;5121049;55;1142791;-68
2022/11/11 14:43:41;;;;;;;10.47;3.33;;;;;;;11.00;100.00;102016.05;5140677;55;1143162;-68
2022/11/11 14:49:07;;;;;;;8.83;3.05;;;;;;;10.96;100.00;102022.45;5157852;55;1147884;-68
2022/11/11 14:54:38;;;;;;;8.87;3.10;;;;;;;10.88;100.00;102030.32;5141418;56;1141009;-69
2022/11/11 15:00:06;;;;;;;7.30;2.70;;;;;;;10.82;100.00;102037.30;5095636;55;1141145;-67
2022/11/11 15:05:46;;;;;;;9.77;2.87;;;;;;;10.79;100.00;102038.77;5140952;55;1141050;-67
2022/11/11 15:11:34;;;;;;;6.20;2.67;;;;;;;10.75;100.00;102026.64;5098297;56;1141133;-67
2022/11/11 15:17:40;;;;;;;10.87;4.07;;;;;;;10.73;100.00;102026.33;5102288;56;1140946;-67
2022/11/11 15:23:35;;;;;;;19.45;11.35;;;;;;;10.68;100.00;102027.07;5113706;56;1143179;-67
2022/11/11 15:29:21;;;;;;;18.15;10.88;;;;;;;10.65;100.00;102043.96;5153874;55;1145137;-69
2022/11/11 15:35:04;;;;;;;10.67;7.87;;;;;;;10.63;100.00;102049.80;5014431;56;1145277;-69
2022/11/11 15:40:43;;;;;;;16.47;7.17;;;;;;;10.57;100.00;102048.32;5050727;56;1142990;-67
2022/11/11 15:46:08;;;;;;;24.83;9.13;;;;;;;10.56;100.00;102055.87;5051139;56;1143082;-68
2022/11/11 15:51:33;;;;;;;219.40;100.02;;;;;;;10.52;100.00;102058.78;5050529;56;1143067;-69
2022/11/11 15:56:56;;;;;;;30.93;16.20;;;;;;;10.49;100.00;102059.80;5049272;56;1149355;-67
2022/11/11 16:02:23;;;;;;;17.73;6.75;;;;;;;10.45;100.00;102060.87;5049744;56;1145125;-66
2022/11/11 16:07:47;;;;;;;17.30;6.73;;;;;;;10.40;100.00;102065.55;5049644;56;1143001;-67
2022/11/11 16:13:29;;;;;;;16.83;6.37;;;;;;;10.33;100.00;102068.14;5113427;56;1143263;-69
2022/11/11 16:18:57;;;;;;;10.57;5.40;;;;;;;10.18;100.00;102068.47;5111179;55;1142920;-65
2022/11/11 16:24:33;;;;;;;16.70;6.90;;;;;;;10.09;100.00;102079.45;5093668;55;1142927;-68
2022/11/11 16:29:56;;;;;;;21.00;8.33;;;;;;;10.06;100.00;102082.75;5129491;55;1143058;-69
2022/11/11 16:35:38;;;;;;;26.48;11.03;;;;;;;10.09;100.00;102087.39;5111760;55;1143125;-66
2022/11/11 16:41:04;;;;;;;39.17;15.43;;;;;;;10.15;100.00;102088.41;5104458;55;1145332;-65
2022/11/11 16:46:40;;;;;;;34.70;15.37;;;;;;;10.20;100.00;102097.47;5044909;55;1145368;-67
2022/11/11 16:52:17;;;;;;;51.70;23.07;;;;;;;10.17;100.00;102089.19;5023355;56;1145028;-69
2022/11/11 16:57:42;;;;;;;30.87;11.77;;;;;;;10.01;100.00;102093.54;4995059;56;1145113;-70
2022/11/11 17:03:23;;;;;;;38.67;18.45;;;;;;;9.79;100.00;102084.95;5021847;56;1145152;-69
2022/11/11 17:08:48;;;;;;;106.95;58.00;;;;;;;9.62;100.00;102081.84;5054019;56;1143031;-69
2022/11/11 17:14:13;;;;;;;106.83;63.10;;;;;;;9.57;100.00;102073.28;5018571;56;1145141;-69
2022/11/11 17:19:38;;;;;;;59.23;33.33;;;;;;;9.57;100.00;102081.67;5038766;56;1145444;-66
2022/11/11 17:25:01;;;;;;;50.52;29.92;;;;;;;9.52;100.00;102079.23;5057590;56;1142906;-69
2022/11/11 17:30:26;;;;;;;61.97;30.97;;;;;;;9.46;100.00;102090.98;5057270;56;1152665;-68
2022/11/11 17:35:53;;;;;;;82.78;45.23;;;;;;;9.44;100.00;102088.87;5063054;56;1143313;-68
2022/11/11 17:41:17;;;;;;;152.37;81.13;;;;;;;9.44;100.00;102095.47;5050657;56;1143037;-70
2022/11/11 17:46:41;;;;;;;130.67;68.17;;;;;;;9.45;100.00;102098.50;5034305;57;1145143;-68
2022/11/11 17:52:06;;;;;;;54.07;28.27;;;;;;;9.44;100.00;102099.89;5034215;57;1145698;-68
2022/11/11 17:57:29;;;;;;;30.00;15.27;;;;;;;9.36;100.00;102094.10;5034574;57;1143122;-69
2022/11/11 18:02:52;;;;;;;24.10;11.15;;;;;;;9.24;100.00;102070.47;5034271;57;1142985;-70
2022/11/11 18:08:15;;;;;;;14.43;8.58;;;;;;;9.22;100.00;102076.73;5035004;57;1143000;-68
2022/11/11 18:13:38;;;;;;;20.65;11.75;;;;;;;9.20;100.00;102082.09;5034640;57;1140798;-69
2022/11/11 18:19:02;;;;;;;26.02;11.48;;;;;;;9.15;100.00;102081.47;5067201;56;1143036;-69
2022/11/11 18:24:26;;;;;;;21.62;11.08;;;;;;;9.11;100.00;102084.70;5065983;56;1143011;-66
2022/11/11 18:29:50;;;;;;;21.20;10.07;;;;;;;9.14;100.00;102082.39;5039282;57;1142996;-69
2022/11/11 18:35:13;;;;;;;21.47;10.87;;;;;;;9.15;100.00;102095.52;5035522;56;1143020;-69
2022/11/11 18:40:38;;;;;;;23.60;11.10;;;;;;;9.12;100.00;102097.44;5007308;56;1143161;-68
2022/11/11 18:46:08;;;;;;;25.20;13.47;;;;;;;9.12;100.00;102097.44;5007743;57;1143020;-68
2022/11/11 18:51:33;;;;;;;31.60;14.00;;;;;;;9.09;100.00;102109.45;5041265;56;1143182;-66
2022/11/11 18:56:58;;;;;;;24.63;10.90;;;;;;;9.20;100.00;102118.19;5025414;56;1143095;-67
2022/11/11 19:02:22;;;;;;;62.58;38.20;;;;;;;9.11;100.00;102104.97;5043634;57;1143357;-68
2022/11/11 19:07:47;;;;;;;;;;;;;;;8.99;100.00;102107.72;5038238;56;1143009;-67
2022/11/11 19:13:10;;;;;;;33.27;12.37;;;;;;;8.91;100.00;102111.14;5061532;57;976282;-68
2022/11/11 19:18:34;;;;;;;82.80;21.00;;;;;;;8.77;100.00;102105.17;5064132;56;1141059;-67
2022/11/11 19:23:59;;;;;;;58.08;19.92;;;;;;;8.72;100.00;102111.56;5123356;56;1143059;-68
2022/11/11 19:29:23;;;;;;;48.70;21.57;;;;;;;8.83;100.00;102122.98;5127186;56;1142857;-69
2022/11/11 19:34:47;;;;;;;41.95;19.42;;;;;;;8.94;100.00;102129.95;5109318;56;1143323;-68
2022/11/11 19:40:12;;;;;;;54.15;17.05;;;;;;;8.91;100.00;102139.31;4963969;57;1150211;-65
2022/11/11 19:45:37;;;;;;;40.57;13.73;;;;;;;8.83;100.00;102146.73;4952666;57;1142894;-68
2022/11/11 19:51:10;;;;;;;38.60;13.20;;;;;;;8.73;100.00;102136.56;4963733;57;1142972;-67
2022/11/11 19:56:35;;;;;;;23.97;10.23;;;;;;;8.66;100.00;102147.00;5017034;56;1143065;-66
2022/11/11 20:01:59;;;;;;;27.77;11.70;;;;;;;8.56;100.00;102135.58;5044495;56;1143154;-67
2022/11/11 20:07:23;;;;;;;24.35;10.15;;;;;;;8.53;100.00;102147.14;5006693;56;1143065;-68
2022/11/11 20:12:47;;;;;;;14.40;9.07;;;;;;;8.42;100.00;102162.55;5035256;56;1143311;-67
2022/11/11 20:18:12;;;;;;;15.58;8.20;;;;;;;8.34;100.00;102162.03;5008247;57;1141075;-68
2022/11/11 20:23:40;;;;;;;21.20;8.63;;;;;;;8.29;100.00;102157.36;4962996;56;1140954;-65
2022/11/11 20:29:04;;;;;;;20.37;8.73;;;;;;;8.18;100.00;102168.83;4963068;57;1140845;-67
2022/11/11 20:34:29;;;;;;;19.10;8.05;;;;;;;8.13;100.00;102165.91;5007957;57;1140901;-70
2022/11/11 20:39:54;;;;;;;22.30;8.73;;;;;;;8.06;100.00;102171.05;5089230;56;1242920;-68
2022/11/11 20:45:18;;;;;;;21.66;9.36;;;;;;;7.99;100.00;102170.88;5058964;56;1140806;-65
2022/11/11 20:50:42;;;;;;;13.97;7.40;;;;;;;7.97;100.00;102177.98;5027943;57;1140982;-66
2022/11/11 20:56:09;;;;;;;14.20;8.18;;;;;;;7.94;100.00;102174.64;5038775;57;1140962;-67
2022/11/11 21:01:33;;;;;;;17.57;6.83;;;;;;;7.89;100.00;102175.28;5040401;56;1141051;-69
2022/11/11 21:06:56;;;;;;;17.70;7.35;;;;;;;7.86;100.00;102169.66;5067692;56;1140886;-65
2022/11/11 21:12:20;;;;;;;15.50;6.75;;;;;;;7.85;100.00;102167.09;5082802;56;1140968;-68
2022/11/11 21:17:43;;;;;;;13.70;7.78;;;;;;;7.87;100.00;102169.20;5041619;56;1140796;-66
2022/11/11 21:23:07;;;;;;;16.57;7.75;;;;;;;7.89;100.00;102176.59;5018085;56;1140932;-66
2022/11/11 21:28:33;;;;;;;17.27;7.42;;;;;;;7.91;100.00;102177.39;5039692;57;1140973;-65
2022/11/11 21:34:10;;;;;;;14.77;7.67;;;;;;;7.96;100.00;102168.37;5008239;57;1140767;-67
2022/11/11 21:39:34;;;;;;;14.40;6.63;;;;;;;8.02;100.00;102169.45;5039343;57;1140784;-66
2022/11/11 21:44:57;;;;;;;14.53;6.15;;;;;;;8.05;100.00;102162.74;5049984;56;1141008;-66
2022/11/11 21:50:19;;;;;;;;;;;;;;;8.06;100.00;102163.60;4993586;56;1140848;-68
2022/11/11 21:55:43;;;;;;;16.47;6.20;;;;;;;8.09;100.00;102164.34;5003663;57;976150;-66
2022/11/11 22:01:09;;;;;;;13.70;6.83;;;;;;;8.09;100.00;102164.34;4979586;57;1138917;-69
2022/11/11 22:06:34;;;;;;;20.63;6.53;;;;;;;8.07;100.00;102160.91;5027771;56;1141135;-66
2022/11/11 22:11:58;;;;;;;15.00;6.47;;;;;;;8.06;100.00;102158.33;5040719;57;1140928;-68
2022/11/11 22:17:21;;;;;;;11.00;6.67;;;;;;;8.04;100.00;102161.03;5038144;57;1141025;-70
2022/11/11 22:22:45;;;;;;;22.87;8.30;;;;;;;8.01;100.00;102161.60;4955092;58;1140992;-66
2022/11/11 22:28:08;;;;;;;;;;;;;;;8.00;100.00;102171.74;4954786;58;1140951;-64
2022/11/11 22:33:31;;;;;;;18.17;5.67;;;;;;;7.95;100.00;102175.02;5013077;57;976327;-66
2022/11/11 22:38:55;;;;;;;16.52;5.95;;;;;;;7.91;100.00;102174.30;4960304;57;1138946;-67
2022/11/11 22:44:18;;;;;;;12.80;6.40;;;;;;;7.86;100.00;102177.56;5031015;57;1140834;-68
2022/11/11 22:49:41;;;;;;;24.47;10.33;;;;;;;7.81;100.00;102180.83;5030524;57;1141012;-67
2022/11/11 22:55:06;;;;;;;18.13;7.97;;;;;;;7.79;100.00;102178.75;5030209;57;1142788;-67
2022/11/11 23:00:29;;;;;;;10.72;5.78;;;;;;;7.70;100.00;102176.00;5045635;56;1141047;-70
2022/11/11 23:05:52;;;;;;;12.55;6.25;;;;;;;7.68;100.00;102178.29;5052693;57;1140895;-67
2022/11/11 23:11:18;;;;;;;16.80;6.30;;;;;;;7.65;100.00;102178.41;5064507;56;1141002;-69
2022/11/11 23:16:42;;;;;;;20.67;9.70;;;;;;;7.61;100.00;102179.00;5033591;56;1140943;-66
2022/11/11 23:22:05;;;;;;;;;;;;;;;7.62;100.00;102174.14;4913104;58;1140953;-66
2022/11/11 23:27:28;;;;;;;102.22;44.53;;;;;;;7.63;100.00;102173.68;4991732;57;976022;-66
2022/11/11 23:32:53;;;;;;;57.80;26.40;;;;;;;7.59;100.00;102173.39;4975166;57;1142935;-67
2022/11/11 23:38:16;;;;;;;71.07;27.23;;;;;;;7.55;100.00;102178.38;4975138;57;1142930;-66
2022/11/11 23:43:39;;;;;;;;;;;;;;;7.57;100.00;102173.45;4978747;57;1143147;-69
2022/11/11 23:49:02;;;;;;;68.03;32.20;;;;;;;7.55;100.00;102171.78;4990253;57;976067;-68
2022/11/11 23:54:25;;;;;;;49.58;24.25;;;;;;;7.54;100.00;102185.86;5005836;57;1140890;-69
2022/11/11 23:59:49;;;;;;;43.00;21.00;;;;;;;7.59;100.00;102179.97;5052327;56;1142830;-67
